Time;durP1;ratioP1;P1;durP2;ratioP2;P2;SDS_P1;SDS_P2;PMS_P1;PMS_P2;Temp;Humidity;BMP_temperature;BMP_pressure;BME280_temperature;BME280_humidity;BME280_pressure;Samples;Min_cycle;Max_cycle;Signal;HPM_P1;HPM_P2
2020/12/13 00:00:00;;;;;;;;;;;5.40;99.90;;;;;;5024577;28;20521;-75
2020/12/13 00:02:25;;;;;;;;;;;5.40;99.90;;;;;;5028194;28;19916;-75
2020/12/13 00:04:51;;;;;;;;;;;5.40;99.90;;;;;;5032140;28;20009;-75
2020/12/13 00:07:16;;;;;;;;;;;5.40;99.90;;;;;;5030156;28;19913;-75
2020/12/13 00:09:42;;;;;;;;;;;5.40;99.90;;;;;;5031511;28;20385;-75
2020/12/13 00:12:08;;;;;;;;;;;5.40;99.90;;;;;;5031942;28;19928;-75
2020/12/13 00:14:33;;;;;;;;;;;5.40;99.90;;;;;;5032337;28;19921;-75
2020/12/13 00:16:59;;;;;;;;;;;5.40;99.90;;;;;;5031466;28;19960;-75
2020/12/13 00:19:25;;;;;;;;;;;5.40;99.90;;;;;;5030805;28;20317;-75
2020/12/13 00:21:51;;;;;;;;;;;5.40;99.90;;;;;;5031203;28;19952;-75
2020/12/13 00:24:17;;;;;;;;;;;5.40;99.90;;;;;;5031568;28;20040;-75
2020/12/13 00:26:43;;;;;;;;;;;5.40;99.90;;;;;;5029169;28;19999;-75
2020/12/13 00:29:08;;;;;;;;;;;5.40;99.90;;;;;;5024167;28;19941;-75
2020/12/13 00:31:34;;;;;;;;;;;5.50;99.90;;;;;;5022968;28;19935;-75
2020/12/13 00:33:59;;;;;;;;;;;5.50;99.90;;;;;;5017753;28;19913;-75
2020/12/13 00:36:24;;;;;;;;;;;5.50;99.90;;;;;;5013037;28;19914;-75
2020/12/13 00:38:50;;;;;;;;;;;5.50;99.90;;;;;;5031558;28;19913;-75
2020/12/13 00:41:16;;;;;;;;;;;5.50;99.90;;;;;;5031521;28;19917;-75
2020/12/13 00:43:41;;;;;;;;;;;5.50;99.90;;;;;;5031782;28;19913;-75
2020/12/13 00:46:07;;;;;;;;;;;5.50;99.90;;;;;;5031398;28;20082;-75
2020/12/13 00:48:32;;;;;;;;;;;5.50;99.90;;;;;;5032060;28;19916;-75
2020/12/13 00:50:58;;;;;;;;;;;5.50;99.90;;;;;;5031687;28;19917;-75
2020/12/13 00:53:23;;;;;;;;;;;5.60;99.90;;;;;;5031843;28;20389;-75
2020/12/13 00:55:49;;;;;;;;;;;5.60;99.90;;;;;;5031374;28;19916;-75
2020/12/13 00:58:14;;;;;;;;;;;5.60;99.90;;;;;;5031448;28;19936;-75
2020/12/13 01:00:40;;;;;;;;;;;5.60;99.90;;;;;;5027550;28;19913;-75
2020/12/13 01:03:05;;;;;;;;;;;5.60;99.90;;;;;;5025491;28;19913;-75
2020/12/13 01:05:31;;;;;;;;;;;5.60;99.90;;;;;;5029764;28;19916;-75
2020/12/13 01:07:56;;;;;;;;;;;5.70;99.90;;;;;;5015208;28;19932;-75
2020/12/13 01:10:22;;;;;;;;;;;5.70;99.90;;;;;;5030711;28;20008;-75
2020/12/13 01:12:47;;;;;;;;;;;5.70;99.90;;;;;;5031370;28;19913;-75
2020/12/13 01:15:13;;;;;;;;;;;5.70;99.90;;;;;;5030153;28;20422;-75
2020/12/13 01:17:38;;;;;;;;;;;5.70;99.90;;;;;;5011420;28;19996;-75
2020/12/13 01:20:05;;;;;;;;;;;5.70;99.90;;;;;;5010409;28;19967;-75
2020/12/13 01:22:35;;;;;;;;;;;5.70;99.90;;;;;;5011388;28;19909;-74
2020/12/13 01:25:00;;;;;;;;;;;5.70;99.90;;;;;;5014049;28;20444;-75
2020/12/13 01:27:26;;;;;;;;;;;5.70;99.90;;;;;;5030738;28;19913;-75
2020/12/13 01:29:51;;;;;;;;;;;5.70;99.90;;;;;;5030077;28;20401;-75
2020/12/13 01:32:16;;;;;;;;;;;5.70;99.90;;;;;;5030146;28;19966;-74
2020/12/13 01:34:42;;;;;;;;;;;5.70;99.90;;;;;;5030587;28;19917;-74
2020/12/13 01:37:07;;;;;;;;;;;5.70;99.90;;;;;;5030629;28;20297;-74
2020/12/13 01:39:33;;;;;;;;;;;5.60;99.90;;;;;;5031231;28;19909;-73
2020/12/13 01:41:59;;;;;;;;;;;5.60;99.90;;;;;;5030690;28;20412;-72
2020/12/13 01:44:31;;;;;;;;;;;5.60;99.90;;;;;;5028379;28;20199;-73
2020/12/13 01:46:57;;;;;;;;;;;5.60;99.90;;;;;;5027464;28;19959;-73
2020/12/13 01:49:24;;;;;;;;;;;5.60;99.90;;;;;;5027515;28;20398;-73
2020/12/13 01:52:05;;;;;;;;;;;5.60;99.90;;;;;;5025909;28;19917;-72
2020/12/13 01:54:32;;;;;;;;;;;5.70;99.90;;;;;;5027665;28;19913;-73
2020/12/13 01:56:57;;;;;;;;;;;5.70;99.90;;;;;;5026222;28;19924;-74
2020/12/13 01:59:24;;;;;;;;;;;5.70;99.90;;;;;;5020045;28;19914;-72
2020/12/13 02:01:55;;;;;;;;;;;5.70;99.90;;;;;;5030403;28;19956;-73
2020/12/13 02:04:23;;;;;;;;;;;5.70;99.90;;;;;;5030929;28;20004;-73
2020/12/13 02:06:54;;;;;;;;;;;5.80;99.90;;;;;;5029490;28;19916;-73
2020/12/13 02:09:20;;;;;;;;;;;5.80;99.90;;;;;;5030831;28;19909;-75
2020/12/13 02:11:46;;;;;;;;;;;5.80;99.90;;;;;;5030231;28;20277;-73
2020/12/13 02:14:11;;;;;;;;;;;5.80;99.90;;;;;;5030066;28;19913;-73
2020/12/13 02:16:36;;;;;;;;;;;5.80;99.90;;;;;;5029961;28;19917;-73
2020/12/13 02:19:02;;;;;;;;;;;5.80;99.90;;;;;;5030985;28;19935;-73
2020/12/13 02:21:28;;;;;;;;;;;5.80;99.90;;;;;;5030176;28;19972;-75
2020/12/13 02:23:53;;;;;;;;;;;5.80;99.90;;;;;;5031111;28;19999;-72
2020/12/13 02:26:19;;;;;;;;;;;5.80;99.90;;;;;;5030819;28;20008;-73
2020/12/13 02:28:44;;;;;;;;;;;5.80;99.90;;;;;;5030418;28;20289;-73
2020/12/13 02:31:10;;;;;;;;;;;5.80;99.90;;;;;;5018869;28;20374;-74
2020/12/13 02:33:38;;;;;;;;;;;5.70;99.90;;;;;;5014816;28;19910;-73
2020/12/13 02:36:04;;;;;;;;;;;5.70;99.90;;;;;;5025829;28;20008;-73
2020/12/13 02:38:31;;;;;;;;;;;5.70;99.90;;;;;;5033297;28;19971;-73
2020/12/13 02:40:57;;;;;;;;;;;5.70;99.90;;;;;;5034012;28;19917;-74
2020/12/13 02:43:22;;;;;;;;;;;5.70;99.90;;;;;;5032771;28;19917;-73
2020/12/13 02:45:48;;;;;;;;;;;5.70;99.90;;;;;;5032359;28;19960;-72
2020/12/13 02:48:13;;;;;;;;;;;5.70;99.90;;;;;;5034053;28;20405;-73
2020/12/13 02:50:39;;;;;;;;;;;5.70;99.90;;;;;;5033981;28;19925;-73
2020/12/13 02:53:05;;;;;;;;;;;5.70;99.90;;;;;;5034029;28;19909;-75
2020/12/13 02:55:30;;;;;;;;;;;5.70;99.90;;;;;;5033921;28;19913;-76
2020/12/13 02:57:56;;;;;;;;;;;5.80;99.90;;;;;;5034432;28;19986;-73
2020/12/13 03:00:21;;;;;;;;;;;5.80;99.90;;;;;;5032790;28;19921;-73
2020/12/13 03:02:47;;;;;;;;;;;5.80;99.90;;;;;;5033360;28;19917;-74
2020/12/13 03:05:12;;;;;;;;;;;5.80;99.90;;;;;;5033892;28;19913;-72
2020/12/13 03:07:37;;;;;;;;;;;5.80;99.90;;;;;;5033669;28;19913;-72
2020/12/13 03:10:03;;;;;;;;;;;5.80;99.90;;;;;;5033775;28;19916;-73
2020/12/13 03:12:29;;;;;;;;;;;5.80;99.90;;;;;;5033591;28;19917;-73
2020/12/13 03:14:54;;;;;;;;;;;5.80;99.90;;;;;;5033330;28;20389;-72
2020/12/13 03:17:20;;;;;;;;;;;5.80;99.90;;;;;;5033547;28;19964;-73
2020/12/13 03:19:46;;;;;;;;;;;5.80;99.90;;;;;;5031863;28;19921;-73
2020/12/13 03:22:11;;;;;;;;;;;5.80;99.90;;;;;;5033381;28;20027;-74
2020/12/13 03:24:37;;;;;;;;;;;5.80;99.90;;;;;;5033548;28;19913;-72
2020/12/13 03:27:02;;;;;;;;;;;5.80;99.90;;;;;;5033285;28;20370;-72
2020/12/13 03:29:28;;;;;;;;;;;5.70;99.90;;;;;;5033057;28;19955;-73
2020/12/13 03:31:53;;;;;;;;;;;5.70;99.90;;;;;;5032182;28;20028;-73
2020/12/13 03:34:19;;;;;;;;;;;5.60;99.90;;;;;;5033392;28;19940;-72
2020/12/13 03:36:44;;;;;;;;;;;5.50;99.90;;;;;;5032260;28;20206;-72
2020/12/13 03:39:10;;;;;;;;;;;5.50;99.90;;;;;;5032772;28;19913;-73
2020/12/13 03:41:35;;;;;;;;;;;5.50;99.90;;;;;;5032818;28;19963;-75
2020/12/13 03:44:01;;;;;;;;;;;5.50;99.90;;;;;;5033118;28;19920;-73
2020/12/13 03:46:26;;;;;;;;;;;5.50;99.90;;;;;;5032032;28;19909;-73
2020/12/13 03:48:52;;;;;;;;;;;5.50;99.90;;;;;;5032738;28;20059;-73
2020/12/13 03:51:17;;;;;;;;;;;5.50;99.90;;;;;;5033083;28;19921;-72
2020/12/13 03:53:43;;;;;;;;;;;5.50;99.90;;;;;;5031810;28;20417;-72
2020/12/13 03:56:08;;;;;;;;;;;5.60;99.90;;;;;;5032525;28;19936;-73
2020/12/13 03:58:34;;;;;;;;;;;5.60;99.90;;;;;;5028172;28;19919;-74
2020/12/13 04:00:59;;;;;;;;;;;5.60;99.90;;;;;;5018919;28;19917;-72
2020/12/13 04:03:24;;;;;;;;;;;5.60;99.90;;;;;;5031646;28;20369;-73
2020/12/13 04:05:50;;;;;;;;;;;5.60;99.90;;;;;;5031006;28;19913;-75
2020/12/13 04:08:15;;;;;;;;;;;5.60;99.90;;;;;;5032764;28;19913;-72
2020/12/13 04:10:41;;;;;;;;;;;5.60;99.90;;;;;;5032286;28;20328;-73
2020/12/13 04:13:06;;;;;;;;;;;5.60;99.90;;;;;;5032586;28;19916;-73
2020/12/13 04:15:32;;;;;;;;;;;5.60;99.90;;;;;;5032262;28;20420;-74
2020/12/13 04:17:57;;;;;;;;;;;5.60;99.90;;;;;;5032603;28;19913;-73
2020/12/13 04:20:23;;;;;;;;;;;5.60;99.90;;;;;;5031963;28;20407;-72
2020/12/13 04:22:48;;;;;;;;;;;5.70;99.90;;;;;;5032242;28;19913;-75
2020/12/13 04:25:14;;;;;;;;;;;5.60;99.90;;;;;;5032177;28;19913;-73
2020/12/13 04:27:39;;;;;;;;;;;5.70;99.90;;;;;;5031696;28;19913;-72
2020/12/13 04:30:05;;;;;;;;;;;5.70;99.90;;;;;;5029236;28;20381;-73
2020/12/13 04:32:31;;;;;;;;;;;5.70;99.90;;;;;;5030657;28;19913;-74
2020/12/13 04:34:56;;;;;;;;;;;5.70;99.90;;;;;;5032226;28;19913;-72
2020/12/13 04:37:24;;;;;;;;;;;5.70;99.90;;;;;;5031863;28;19909;-73
2020/12/13 04:39:53;;;;;;;;;;;5.70;99.90;;;;;;5030622;28;19917;-72
2020/12/13 04:42:22;;;;;;;;;;;5.70;99.90;;;;;;5031782;28;19967;-72
2020/12/13 04:44:47;;;;;;;;;;;5.70;99.90;;;;;;5031698;28;19917;-73
2020/12/13 04:47:15;;;;;;;;;;;5.70;99.90;;;;;;5031636;28;19959;-77
2020/12/13 04:49:42;;;;;;;;;;;5.70;99.90;;;;;;5031579;28;19917;-72
2020/12/13 04:52:08;;;;;;;;;;;5.80;99.90;;;;;;5031663;28;20321;-73
2020/12/13 04:54:33;;;;;;;;;;;5.80;99.90;;;;;;5031849;28;19921;-74
2020/12/13 04:56:59;;;;;;;;;;;5.90;99.90;;;;;;5031305;28;19920;-72
2020/12/13 04:59:25;;;;;;;;;;;5.90;99.90;;;;;;5026384;28;20424;-72
2020/12/13 05:01:52;;;;;;;;;;;5.80;99.90;;;;;;5030834;28;19917;-73
2020/12/13 05:04:17;;;;;;;;;;;5.80;99.90;;;;;;5031571;28;19924;-76
2020/12/13 05:06:43;;;;;;;;;;;5.90;99.90;;;;;;5031416;28;19909;-72
2020/12/13 05:09:09;;;;;;;;;;;5.90;99.90;;;;;;5032034;28;19909;-72
2020/12/13 05:11:37;;;;;;;;;;;5.90;99.90;;;;;;5030799;28;19921;-72
2020/12/13 05:14:03;;;;;;;;;;;5.80;99.90;;;;;;5031660;28;19909;-73
2020/12/13 05:16:28;;;;;;;;;;;5.80;99.90;;;;;;5031308;28;19913;-73
2020/12/13 05:18:54;;;;;;;;;;;5.80;99.90;;;;;;5031320;28;20369;-72
2020/12/13 05:21:20;;;;;;;;;;;5.70;99.90;;;;;;5030973;28;19963;-72
2020/12/13 05:23:46;;;;;;;;;;;5.70;99.90;;;;;;5031389;28;19916;-72
2020/12/13 05:26:11;;;;;;;;;;;5.70;99.90;;;;;;5030241;28;19929;-72
2020/12/13 05:28:37;;;;;;;;;;;5.70;99.90;;;;;;5028594;28;19931;-73
2020/12/13 05:31:03;;;;;;;;;;;5.70;99.90;;;;;;5024333;28;19952;-72
2020/12/13 05:33:34;;;;;;;;;;;5.70;99.90;;;;;;5031152;28;20366;-72
2020/12/13 05:36:01;;;;;;;;;;;5.70;99.90;;;;;;5029309;28;19948;-76
2020/12/13 05:38:30;;;;;;;;;;;5.70;99.90;;;;;;5031326;28;19909;-74
2020/12/13 05:40:56;;;;;;;;;;;5.70;99.90;;;;;;5030870;28;20329;-74
2020/12/13 05:43:24;;;;;;;;;;;5.60;99.90;;;;;;5029810;28;19967;-74
2020/12/13 05:53:47;;;;;;;;;;;5.60;99.90;;;;;;5031039;28;19955;-74
2020/12/13 05:56:13;;;;;;;;;;;5.60;99.90;;;;;;5029322;28;19913;-72
2020/12/13 05:58:38;;;;;;;;;;;5.60;99.90;;;;;;5027351;28;20288;-72
2020/12/13 06:01:04;;;;;;;;;;;5.60;99.90;;;;;;5027260;28;19924;-73
2020/12/13 06:03:37;;;;;;;;;;;5.60;99.90;;;;;;5034775;28;19999;-73
2020/12/13 06:06:10;;;;;;;;;;;5.60;99.90;;;;;;5033525;28;19913;-75
2020/12/13 06:08:49;;;;;;;;;;;5.60;99.90;;;;;;5034635;28;19913;-73
2020/12/13 06:11:15;;;;;;;;;;;5.60;99.90;;;;;;5034724;28;20366;-72
2020/12/13 06:13:44;;;;;;;;;;;5.60;99.90;;;;;;5034759;28;19963;-75
2020/12/13 06:16:11;;;;;;;;;;;5.60;99.90;;;;;;5034121;28;19920;-72
2020/12/13 06:18:36;;;;;;;;;;;5.60;99.90;;;;;;5033568;28;20003;-73
2020/12/13 06:21:05;;;;;;;;;;;5.60;99.90;;;;;;5034288;28;19965;-72
2020/12/13 06:23:31;;;;;;;;;;;5.60;99.90;;;;;;5034339;28;20008;-73
2020/12/13 06:25:56;;;;;;;;;;;5.60;99.90;;;;;;5034052;28;20040;-72
2020/12/13 06:28:22;;;;;;;;;;;5.60;99.90;;;;;;5034327;28;19920;-73
2020/12/13 06:30:48;;;;;;;;;;;5.60;99.90;;;;;;5033520;28;19921;-74
2020/12/13 06:33:13;;;;;;;;;;;5.60;99.90;;;;;;5034552;28;19914;-75
2020/12/13 06:35:41;;;;;;;;;;;5.60;99.90;;;;;;5032954;28;19914;-74
2020/12/13 06:38:17;;;;;;;;;;;5.60;99.90;;;;;;5035032;28;19917;-73
2020/12/13 06:40:43;;;;;;;;;;;5.60;99.90;;;;;;5034245;28;19924;-73
2020/12/13 06:43:09;;;;;;;;;;;5.60;99.90;;;;;;5032909;28;19913;-72
2020/12/13 06:45:34;;;;;;;;;;;5.60;99.90;;;;;;5034451;28;20297;-72
2020/12/13 06:48:00;;;;;;;;;;;5.60;99.90;;;;;;5034244;28;19979;-74
2020/12/13 06:50:25;;;;;;;;;;;5.60;99.90;;;;;;5033842;28;19924;-72
2020/12/13 06:52:51;;;;;;;;;;;5.60;99.90;;;;;;5034280;28;19909;-73
2020/12/13 06:55:17;;;;;;;;;;;5.60;99.90;;;;;;5034070;28;20281;-73
2020/12/13 06:57:44;;;;;;;;;;;5.60;99.90;;;;;;5033555;28;19942;-73
2020/12/13 07:00:09;;;;;;;;;;;5.70;99.90;;;;;;5020855;28;19991;-72
2020/12/13 07:02:54;;;;;;;;;;;5.70;99.90;;;;;;5033824;28;19917;-72
2020/12/13 07:05:19;;;;;;;;;;;5.70;99.90;;;;;;5033890;28;20465;-72
2020/12/13 07:07:48;;;;;;;;;;;5.80;99.90;;;;;;5032328;28;20028;-72
2020/12/13 07:10:14;;;;;;;;;;;5.80;99.90;;;;;;5033566;28;19967;-73
2020/12/13 07:12:47;;;;;;;;;;;5.80;99.90;;;;;;5033374;28;19913;-73
2020/12/13 07:15:18;;;;;;;;;;;5.80;99.90;;;;;;5033748;28;20016;-73
2020/12/13 07:17:44;;;;;;;;;;;5.80;99.90;;;;;;5032012;28;19996;-72
2020/12/13 07:20:10;;;;;;;;;;;5.80;99.90;;;;;;5032546;28;19920;-73
2020/12/13 07:22:36;;;;;;;;;;;5.80;99.90;;;;;;5033333;28;19917;-72
2020/12/13 07:25:02;;;;;;;;;;;5.80;99.90;;;;;;5033251;28;19966;-72
2020/12/13 07:27:27;;;;;;;;;;;5.80;99.90;;;;;;5032673;28;19917;-72
2020/12/13 07:29:56;;;;;;;;;;;5.80;99.90;;;;;;5019741;28;19910;-73
2020/12/13 07:32:22;;;;;;;;;;;5.80;99.90;;;;;;5032720;28;19913;-72
2020/12/13 07:34:48;;;;;;;;;;;5.80;99.90;;;;;;5033366;28;20409;-72
2020/12/13 07:37:14;;;;;;;;;;;5.80;99.90;;;;;;5032665;28;20006;-73
2020/12/13 07:39:40;;;;;;;;;;;5.80;99.90;;;;;;5033416;28;19909;-72
2020/12/13 07:42:08;;;;;;;;;;;5.90;99.90;;;;;;5033064;28;20362;-73
2020/12/13 07:44:34;;;;;;;;;;;5.90;99.90;;;;;;5032079;28;19992;-73
2020/12/13 07:46:59;;;;;;;;;;;5.90;99.90;;;;;;5031439;28;20026;-73
2020/12/13 07:49:25;;;;;;;;;;;6.00;99.90;;;;;;5032906;28;19962;-72
2020/12/13 07:51:52;;;;;;;;;;;6.00;99.90;;;;;;5032896;28;19913;-73
2020/12/13 07:54:21;;;;;;;;;;;6.00;99.90;;;;;;5033258;28;20362;-74
2020/12/13 07:56:51;;;;;;;;;;;6.00;99.90;;;;;;5032394;28;19962;-72
2020/12/13 07:59:18;;;;;;;;;;;6.00;99.90;;;;;;5032857;28;19915;-72
2020/12/13 08:01:44;;;;;;;;;;;6.10;99.90;;;;;;5032484;28;20104;-72
2020/12/13 08:04:10;;;;;;;;;;;6.10;99.90;;;;;;5033086;28;19909;-73
2020/12/13 08:06:35;;;;;;;;;;;6.10;99.90;;;;;;5030975;28;20477;-74
2020/12/13 08:09:11;;;;;;;;;;;6.10;99.90;;;;;;5032970;28;20396;-72
2020/12/13 08:11:37;;;;;;;;;;;6.10;99.90;;;;;;5031095;28;19913;-72
2020/12/13 08:14:04;;;;;;;;;;;6.10;99.90;;;;;;5032071;28;19921;-72
2020/12/13 08:16:29;;;;;;;;;;;6.10;99.90;;;;;;5031981;28;19948;-72
2020/12/13 08:18:57;;;;;;;;;;;6.10;99.90;;;;;;5030190;28;19951;-72
2020/12/13 08:21:26;;;;;;;;;;;6.20;99.90;;;;;;5032554;28;20517;-72
2020/12/13 08:23:55;;;;;;;;;;;6.20;99.90;;;;;;5022095;28;19936;-72
2020/12/13 08:26:20;;;;;;;;;;;6.20;99.90;;;;;;5027171;28;19913;-73
2020/12/13 08:28:46;;;;;;;;;;;6.20;99.90;;;;;;5028181;28;20259;-75
2020/12/13 08:31:13;;;;;;;;;;;6.30;99.90;;;;;;5011171;28;19963;-74
2020/12/13 08:33:40;;;;;;;;;;;6.30;99.90;;;;;;5029987;28;19909;-72
2020/12/13 08:36:18;;;;;;;;;;;6.40;99.90;;;;;;5030686;28;20381;-72
2020/12/13 08:38:43;;;;;;;;;;;6.40;99.90;;;;;;5032253;28;19948;-72
2020/12/13 08:41:12;;;;;;;;;;;6.40;99.90;;;;;;5032484;28;20006;-73
2020/12/13 08:43:38;;;;;;;;;;;6.40;99.90;;;;;;5032165;28;19913;-73
2020/12/13 08:46:03;;;;;;;;;;;6.40;99.90;;;;;;5027737;28;19909;-73
2020/12/13 08:48:29;;;;;;;;;;;6.50;99.90;;;;;;5030894;28;19917;-73
2020/12/13 08:51:23;;;;;;;;;;;6.50;99.90;;;;;;5027370;28;19921;-72
2020/12/13 08:53:54;;;;;;;;;;;6.50;99.90;;;;;;5007601;28;20320;-73
2020/12/13 08:56:29;;;;;;;;;;;6.80;99.90;;;;;;5029994;28;19914;-75
2020/12/13 08:58:57;;;;;;;;;;;7.00;99.90;;;;;;5026322;28;19948;-73
2020/12/13 09:01:27;;;;;;;;;;;7.20;99.90;;;;;;5024086;28;19940;-73
2020/12/13 09:03:53;;;;;;;;;;;7.30;99.90;;;;;;5030023;28;19909;-72
2020/12/13 09:06:32;;;;;;;;;;;7.40;99.90;;;;;;5019043;28;19916;-73
2020/12/13 09:09:13;;;;;;;;;;;7.60;99.90;;;;;;5020879;28;20430;-74
2020/12/13 09:11:39;;;;;;;;;;;8.00;99.90;;;;;;5025595;28;20391;-72
2020/12/13 09:14:05;;;;;;;;;;;8.30;99.90;;;;;;5030147;28;19923;-72
2020/12/13 09:16:31;;;;;;;;;;;8.30;99.90;;;;;;5026586;28;20000;-72
2020/12/13 09:19:06;;;;;;;;;;;8.20;99.90;;;;;;5011103;28;19914;-72
2020/12/13 09:21:49;;;;;;;;;;;8.10;99.90;;;;;;5011555;28;20000;-75
2020/12/13 09:24:16;;;;;;;;;;;8.10;99.90;;;;;;5010439;28;19910;-73
2020/12/13 09:26:55;;;;;;;;;;;8.00;99.90;;;;;;5011705;28;19916;-74
2020/12/13 09:29:21;;;;;;;;;;;8.10;99.90;;;;;;5016379;28;20396;-73
2020/12/13 09:31:46;;;;;;;;;;;8.10;99.90;;;;;;5011532;28;19910;-73
2020/12/13 09:34:11;;;;;;;;;;;8.00;99.90;;;;;;5013956;28;19975;-75
2020/12/13 09:36:37;;;;;;;;;;;8.10;99.90;;;;;;5030394;28;19949;-72
2020/12/13 09:39:02;;;;;;;;;;;8.10;99.90;;;;;;5030956;28;19917;-73
2020/12/13 09:41:28;;;;;;;;;;;8.10;99.90;;;;;;5021620;28;20059;-74
2020/12/13 09:43:53;;;;;;;;;;;8.10;99.90;;;;;;5011375;28;19910;-73
2020/12/13 09:46:19;;;;;;;;;;;8.10;99.90;;;;;;5026720;28;19909;-73
2020/12/13 09:48:44;;;;;;;;;;;8.00;99.90;;;;;;5030972;28;20301;-73
2020/12/13 09:51:14;;;;;;;;;;;8.30;99.90;;;;;;5028843;28;19997;-74
2020/12/13 09:53:40;;;;;;;;;;;8.60;99.90;;;;;;5023119;28;20051;-76
2020/12/13 09:56:05;;;;;;;;;;;8.90;99.90;;;;;;5030757;28;19971;-72
2020/12/13 09:58:31;;;;;;;;;;;9.20;99.90;;;;;;5028998;28;19913;-73
2020/12/13 10:00:56;;;;;;;;;;;9.30;99.90;;;;;;5017037;28;19913;-74
2020/12/13 10:03:22;;;;;;;;;;;9.30;99.90;;;;;;5029388;28;19917;-75
2020/12/13 10:06:13;;;;;;;;;;;9.30;99.90;;;;;;5030103;28;19965;-75
2020/12/13 10:11:23;;;;;;;;;;;9.00;99.90;;;;;;5031001;28;19920;-75
2020/12/13 10:13:48;;;;;;;;;;;8.90;99.90;;;;;;5029726;28;19921;-74
2020/12/13 10:16:14;;;;;;;;;;;8.90;99.90;;;;;;5028550;28;20059;-75
2020/12/13 10:18:40;;;;;;;;;;;8.70;99.90;;;;;;5030216;28;19959;-75
2020/12/13 10:21:05;;;;;;;;;;;8.70;99.90;;;;;;5027070;28;19932;-75
2020/12/13 10:23:31;;;;;;;;;;;8.60;99.90;;;;;;5022116;28;19914;-75
2020/12/13 10:25:56;;;;;;;;;;;8.60;99.90;;;;;;5018916;28;19920;-75
2020/12/13 10:28:21;;;;;;;;;;;8.60;99.90;;;;;;5020932;28;19924;-75
2020/12/13 10:30:50;;;;;;;;;;;8.40;99.90;;;;;;5019195;28;20008;-75
2020/12/13 10:33:16;;;;;;;;;;;8.30;99.90;;;;;;5018995;28;19919;-74
2020/12/13 10:35:42;;;;;;;;;;;8.30;99.90;;;;;;5018837;28;19913;-75
2020/12/13 10:38:07;;;;;;;;;;;8.20;99.90;;;;;;5022664;28;19963;-75
2020/12/13 10:40:34;;;;;;;;;;;8.20;99.90;;;;;;5018648;28;19917;-75
2020/12/13 10:42:59;;;;;;;;;;;8.30;99.90;;;;;;5020269;28;19913;-74
2020/12/13 10:45:25;;;;;;;;;;;8.30;99.90;;;;;;5017840;28;19909;-74
2020/12/13 10:47:50;;;;;;;;;;;8.30;99.90;;;;;;5032621;28;19913;-75
2020/12/13 10:50:15;;;;;;;;;;;8.40;99.90;;;;;;5033634;28;19940;-75
2020/12/13 10:52:41;;;;;;;;;;;8.30;99.90;;;;;;5029641;28;19921;-75
2020/12/13 10:55:06;;;;;;;;;;;8.30;99.90;;;;;;5025019;28;20368;-75
2020/12/13 10:57:32;;;;;;;;;;;8.30;99.90;;;;;;5033491;28;19917;-75
2020/12/13 10:59:57;;;;;;;;;;;8.20;99.90;;;;;;5019763;28;19913;-75
2020/12/13 11:02:23;;;;;;;;;;;8.20;99.90;;;;;;5023232;28;20302;-75
2020/12/13 11:04:48;;;;;;;;;;;8.10;99.90;;;;;;5034228;28;19954;-75
2020/12/13 11:07:14;;;;;;;;;;;8.10;99.90;;;;;;5033115;28;20374;-75
2020/12/13 11:09:39;;;;;;;;;;;8.00;99.90;;;;;;5033502;28;19913;-75
2020/12/13 11:12:04;;;;;;;;;;;7.90;99.90;;;;;;5033654;28;19917;-75
2020/12/13 11:14:30;;;;;;;;;;;7.90;99.90;;;;;;5033967;28;19909;-75
2020/12/13 11:16:55;;;;;;;;;;;7.80;99.90;;;;;;5030836;28;19963;-75
2020/12/13 11:19:21;;;;;;;;;;;7.80;99.90;;;;;;5030114;28;19940;-75
2020/12/13 11:21:46;;;;;;;;;;;7.80;99.90;;;;;;5031467;28;20278;-75
2020/12/13 11:24:12;;;;;;;;;;;7.80;99.90;;;;;;5031512;28;19959;-75
2020/12/13 11:26:38;;;;;;;;;;;7.80;99.90;;;;;;5032919;28;19914;-75
2020/12/13 11:29:03;;;;;;;;;;;7.70;99.90;;;;;;5033220;28;19967;-75
2020/12/13 11:31:29;;;;;;;;;;;7.70;99.90;;;;;;5030688;28;19921;-75
2020/12/13 11:33:54;;;;;;;;;;;7.60;99.90;;;;;;5032997;28;19913;-74
2020/12/13 11:36:19;;;;;;;;;;;7.50;99.90;;;;;;5033000;28;20390;-76
2020/12/13 11:38:45;;;;;;;;;;;7.50;99.90;;;;;;5032436;28;19917;-74
2020/12/13 11:41:10;;;;;;;;;;;7.50;99.90;;;;;;5032868;28;19921;-74
2020/12/13 11:43:36;;;;;;;;;;;7.50;99.90;;;;;;5032827;28;20366;-74
2020/12/13 11:46:01;;;;;;;;;;;7.60;99.90;;;;;;5033043;28;20007;-75
2020/12/13 11:48:27;;;;;;;;;;;7.60;99.90;;;;;;5032596;28;19960;-75
2020/12/13 11:50:53;;;;;;;;;;;7.60;99.90;;;;;;5032383;28;19917;-74
2020/12/13 11:53:19;;;;;;;;;;;7.60;99.90;;;;;;5031016;28;20019;-74
2020/12/13 11:55:45;;;;;;;;;;;7.60;99.90;;;;;;5016695;28;20017;-74
2020/12/13 11:58:11;;;;;;;;;;;7.60;99.90;;;;;;5031717;28;19917;-74
2020/12/13 12:00:42;;;;;;;;;;;7.60;99.90;;;;;;5027590;28;19918;-74
2020/12/13 12:03:08;;;;;;;;;;;7.70;99.90;;;;;;5009966;28;19913;-74
2020/12/13 12:05:33;;;;;;;;;;;7.80;99.90;;;;;;5011823;28;19932;-74
2020/12/13 12:07:58;;;;;;;;;;;7.80;99.90;;;;;;5012901;28;20388;-74
2020/12/13 12:10:24;;;;;;;;;;;7.80;99.90;;;;;;5012934;28;19917;-74
2020/12/13 12:12:49;;;;;;;;;;;7.70;99.90;;;;;;5012959;28;19956;-74
2020/12/13 12:15:15;;;;;;;;;;;7.70;99.90;;;;;;5013066;28;19914;-75
2020/12/13 12:17:40;;;;;;;;;;;7.70;99.90;;;;;;5012551;28;19913;-75
2020/12/13 12:20:06;;;;;;;;;;;7.70;99.90;;;;;;5011670;28;20000;-74
2020/12/13 12:22:32;;;;;;;;;;;7.80;99.90;;;;;;5013111;28;19916;-75
2020/12/13 12:24:58;;;;;;;;;;;7.70;99.90;;;;;;5011314;28;19921;-75
2020/12/13 12:27:23;;;;;;;;;;;7.70;99.90;;;;;;5012344;28;19909;-75
2020/12/13 12:29:49;;;;;;;;;;;7.70;99.90;;;;;;5016693;28;19914;-75
2020/12/13 12:32:15;;;;;;;;;;;7.70;99.90;;;;;;5012576;28;19915;-75
2020/12/13 12:34:40;;;;;;;;;;;7.70;99.90;;;;;;5012141;28;19988;-75
2020/12/13 12:37:06;;;;;;;;;;;7.70;99.90;;;;;;5012252;28;20271;-75
2020/12/13 12:39:31;;;;;;;;;;;7.60;99.90;;;;;;5012508;28;19914;-75
2020/12/13 12:41:57;;;;;;;;;;;7.60;99.90;;;;;;5012675;28;19921;-75
2020/12/13 12:44:22;;;;;;;;;;;7.60;99.90;;;;;;5012589;28;19910;-75
2020/12/13 12:46:48;;;;;;;;;;;7.60;99.90;;;;;;5012390;28;19915;-75
2020/12/13 12:49:13;;;;;;;;;;;7.60;99.90;;;;;;5012416;28;20282;-75
2020/12/13 12:51:39;;;;;;;;;;;7.60;99.90;;;;;;5012212;28;19933;-75
2020/12/13 12:54:04;;;;;;;;;;;7.50;99.90;;;;;;5012257;28;19963;-75
2020/12/13 12:56:29;;;;;;;;;;;7.50;99.90;;;;;;5011926;28;19917;-75
2020/12/13 12:59:02;;;;;;;;;;;7.50;99.90;;;;;;5017063;28;19915;-75
2020/12/13 13:01:30;;;;;;;;;;;7.40;99.90;;;;;;5010703;28;20371;-75
2020/12/13 13:03:59;;;;;;;;;;;7.40;99.90;;;;;;5012168;28;20322;-75
2020/12/13 13:09:02;;;;;;;;;;;7.40;99.90;;;;;;5012586;28;19957;-75
2020/12/13 13:11:33;;;;;;;;;;;7.40;99.90;;;;;;5010755;28;20420;-75
2020/12/13 13:13:59;;;;;;;;;;;7.40;99.90;;;;;;5012031;28;19964;-75
2020/12/13 13:16:25;;;;;;;;;;;7.30;99.90;;;;;;5011539;28;19914;-75
2020/12/13 13:18:54;;;;;;;;;;;7.30;99.90;;;;;;5011758;28;19955;-74
2020/12/13 13:21:23;;;;;;;;;;;7.40;99.90;;;;;;5011650;28;19917;-75
2020/12/13 13:23:49;;;;;;;;;;;7.30;99.90;;;;;;5010413;28;19909;-75
2020/12/13 13:26:21;;;;;;;;;;;7.30;99.90;;;;;;5011510;28;20024;-75
2020/12/13 13:28:46;;;;;;;;;;;7.20;99.90;;;;;;5019657;28;20289;-75
2020/12/13 13:31:13;;;;;;;;;;;7.30;99.90;;;;;;5031354;28;19909;-75
2020/12/13 13:33:39;;;;;;;;;;;7.30;99.90;;;;;;5031252;28;20425;-75
2020/12/13 13:36:04;;;;;;;;;;;7.30;99.90;;;;;;5031002;28;19944;-75
2020/12/13 13:38:29;;;;;;;;;;;7.30;99.90;;;;;;5031304;28;20361;-75
2020/12/13 13:40:55;;;;;;;;;;;7.30;99.90;;;;;;5031314;28;20008;-75
2020/12/13 13:43:20;;;;;;;;;;;7.30;99.90;;;;;;5031263;28;19909;-75
2020/12/13 13:50:56;;;;;;;;;;;7.40;99.90;;;;;;5031096;28;20305;-75
2020/12/13 13:53:22;;;;;;;;;;;7.40;99.90;;;;;;5031203;28;19910;-75
2020/12/13 13:58:17;;;;;;;;;;;7.50;99.90;;;;;;5030744;28;19915;-75
2020/12/13 14:00:42;;;;;;;;;;;7.50;99.90;;;;;;5009857;28;20290;-75
2020/12/13 14:03:07;;;;;;;;;;;7.50;99.90;;;;;;5011331;28;20000;-75
2020/12/13 14:05:40;;;;;;;;;;;7.50;99.90;;;;;;5011268;28;20325;-75
2020/12/13 14:08:22;;;;;;;;;;;7.60;99.90;;;;;;5011479;28;19937;-75
2020/12/13 14:10:48;;;;;;;;;;;7.70;99.90;;;;;;5011456;28;20393;-75
2020/12/13 14:13:14;;;;;;;;;;;7.70;99.90;;;;;;5009875;28;20012;-75
2020/12/13 14:15:39;;;;;;;;;;;7.70;99.90;;;;;;5009851;28;20385;-75
2020/12/13 14:18:05;;;;;;;;;;;7.70;99.90;;;;;;5009847;28;19916;-75
2020/12/13 14:20:30;;;;;;;;;;;7.70;99.90;;;;;;5009720;28;19914;-75
2020/12/13 14:22:55;;;;;;;;;;;7.70;99.90;;;;;;5014008;28;19909;-75
2020/12/13 14:25:21;;;;;;;;;;;7.70;99.90;;;;;;5015242;28;19909;-75
2020/12/13 14:27:47;;;;;;;;;;;7.70;99.90;;;;;;5015681;28;19909;-75
2020/12/13 14:30:12;;;;;;;;;;;7.70;99.90;;;;;;5017187;28;20374;-75
2020/12/13 14:32:38;;;;;;;;;;;7.70;99.90;;;;;;5014758;28;19914;-75
2020/12/13 14:35:05;;;;;;;;;;;7.60;99.90;;;;;;5014843;28;19917;-75
2020/12/13 14:37:31;;;;;;;;;;;7.60;99.90;;;;;;5014585;28;19948;-75
2020/12/13 14:39:57;;;;;;;;;;;7.60;99.90;;;;;;5014742;28;19913;-75
2020/12/13 14:42:22;;;;;;;;;;;7.60;99.90;;;;;;5013281;28;19964;-75
2020/12/13 14:44:48;;;;;;;;;;;7.50;99.90;;;;;;5014729;28;19909;-75
2020/12/13 14:47:13;;;;;;;;;;;7.50;99.90;;;;;;5013062;28;19925;-75